sensor_id;sensor_type;location;lat;lon;timestamp;P1;durP1;ratioP1;P2;durP2;ratioP2
38994;SDS011;24769;18.712;99.000;2024-02-23T00:02:06;77.00;;;69.40;;
38994;SDS011;24769;18.712;99.000;2024-02-23T00:04:32;78.40;;;71.80;;
38994;SDS011;24769;18.712;99.000;2024-02-23T00:06:59;78.00;;;69.60;;
38994;SDS011;24769;18.712;99.000;2024-02-23T00:09:28;81.00;;;74.20;;
38994;SDS011;24769;18.712;99.000;2024-02-23T00:11:54;79.00;;;72.40;;
38994;SDS011;24769;18.712;99.000;2024-02-23T00:14:21;83.20;;;78.40;;
38994;SDS011;24769;18.712;99.000;2024-02-23T00:16:47;80.80;;;76.80;;
38994;SDS011;24769;18.712;99.000;2024-02-23T00:19:15;82.40;;;79.20;;
38994;SDS011;24769;18.712;99.000;2024-02-23T00:21:44;85.00;;;83.20;;
38994;SDS011;24769;18.712;99.000;2024-02-23T00:24:15;91.40;;;90.40;;
38994;SDS011;24769;18.712;99.000;2024-02-23T00:26:42;80.60;;;74.80;;
38994;SDS011;24769;18.712;99.000;2024-02-23T00:29:09;84.40;;;84.00;;
38994;SDS011;24769;18.712;99.000;2024-02-23T00:31:39;80.20;;;78.40;;
38994;SDS011;24769;18.712;99.000;2024-02-23T00:34:10;77.80;;;74.20;;
38994;SDS011;24769;18.712;99.000;2024-02-23T00:36:38;88.20;;;88.20;;
38994;SDS011;24769;18.712;99.000;2024-02-23T00:39:06;88.40;;;86.80;;
38994;SDS011;24769;18.712;99.000;2024-02-23T00:41:33;85.60;;;85.60;;
38994;SDS011;24769;18.712;99.000;2024-02-23T00:44:00;90.80;;;90.60;;
38994;SDS011;24769;18.712;99.000;2024-02-23T00:46:28;84.60;;;84.40;;
38994;SDS011;24769;18.712;99.000;2024-02-23T00:48:55;94.40;;;91.60;;
38994;SDS011;24769;18.712;99.000;2024-02-23T00:51:22;96.20;;;93.00;;
38994;SDS011;24769;18.712;99.000;2024-02-23T00:53:48;88.80;;;88.80;;
38994;SDS011;24769;18.712;99.000;2024-02-23T00:56:15;101.40;;;98.80;;
38994;SDS011;24769;18.712;99.000;2024-02-23T00:58:41;105.00;;;102.20;;
38994;SDS011;24769;18.712;99.000;2024-02-23T01:01:08;99.40;;;97.80;;
38994;SDS011;24769;18.712;99.000;2024-02-23T01:03:35;93.60;;;93.20;;
38994;SDS011;24769;18.712;99.000;2024-02-23T01:06:01;96.40;;;96.40;;
38994;SDS011;24769;18.712;99.000;2024-02-23T01:08:28;91.00;;;90.20;;
38994;SDS011;24769;18.712;99.000;2024-02-23T01:10:54;88.20;;;85.40;;
38994;SDS011;24769;18.712;99.000;2024-02-23T01:13:21;91.60;;;89.00;;
38994;SDS011;24769;18.712;99.000;2024-02-23T01:15:48;88.20;;;86.80;;
38994;SDS011;24769;18.712;99.000;2024-02-23T01:18:14;98.60;;;96.80;;
38994;SDS011;24769;18.712;99.000;2024-02-23T01:20:41;104.80;;;104.80;;
38994;SDS011;24769;18.712;99.000;2024-02-23T01:23:08;96.00;;;95.40;;
38994;SDS011;24769;18.712;99.000;2024-02-23T01:25:35;87.20;;;85.60;;
38994;SDS011;24769;18.712;99.000;2024-02-23T01:28:26;95.20;;;91.40;;
38994;SDS011;24769;18.712;99.000;2024-02-23T01:30:53;85.20;;;83.40;;
38994;SDS011;24769;18.712;99.000;2024-02-23T01:33:19;93.60;;;93.60;;
38994;SDS011;24769;18.712;99.000;2024-02-23T01:35:46;82.80;;;78.20;;
38994;SDS011;24769;18.712;99.000;2024-02-23T01:38:13;80.00;;;73.40;;
38994;SDS011;24769;18.712;99.000;2024-02-23T01:40:46;83.40;;;79.40;;
38994;SDS011;24769;18.712;99.000;2024-02-23T01:43:13;80.80;;;76.20;;
38994;SDS011;24769;18.712;99.000;2024-02-23T01:45:40;84.40;;;83.80;;
38994;SDS011;24769;18.712;99.000;2024-02-23T01:48:06;83.20;;;81.00;;
38994;SDS011;24769;18.712;99.000;2024-02-23T01:50:33;86.40;;;84.20;;
38994;SDS011;24769;18.712;99.000;2024-02-23T01:53:02;82.60;;;80.80;;
38994;SDS011;24769;18.712;99.000;2024-02-23T01:55:29;82.80;;;81.20;;
38994;SDS011;24769;18.712;99.000;2024-02-23T01:57:58;81.00;;;78.80;;
38994;SDS011;24769;18.712;99.000;2024-02-23T02:00:26;79.40;;;75.00;;
38994;SDS011;24769;18.712;99.000;2024-02-23T02:02:54;85.80;;;84.00;;
38994;SDS011;24769;18.712;99.000;2024-02-23T02:05:21;84.40;;;84.20;;
38994;SDS011;24769;18.712;99.000;2024-02-23T02:07:47;83.00;;;80.20;;
38994;SDS011;24769;18.712;99.000;2024-02-23T02:10:19;81.20;;;77.00;;
38994;SDS011;24769;18.712;99.000;2024-02-23T02:12:46;81.00;;;76.40;;
38994;SDS011;24769;18.712;99.000;2024-02-23T02:15:13;83.00;;;81.60;;
38994;SDS011;24769;18.712;99.000;2024-02-23T02:17:40;78.20;;;73.00;;
38994;SDS011;24769;18.712;99.000;2024-02-23T02:20:07;77.80;;;71.40;;
38994;SDS011;24769;18.712;99.000;2024-02-23T02:22:38;80.00;;;77.40;;
38994;SDS011;24769;18.712;99.000;2024-02-23T02:25:05;75.80;;;69.60;;
38994;SDS011;24769;18.712;99.000;2024-02-23T02:27:33;78.80;;;74.40;;
38994;SDS011;24769;18.712;99.000;2024-02-23T02:29:59;82.60;;;82.00;;
38994;SDS011;24769;18.712;99.000;2024-02-23T02:32:26;80.00;;;76.80;;
38994;SDS011;24769;18.712;99.000;2024-02-23T02:34:52;84.60;;;84.40;;
38994;SDS011;24769;18.712;99.000;2024-02-23T02:37:19;84.80;;;84.80;;
38994;SDS011;24769;18.712;99.000;2024-02-23T02:39:45;87.80;;;87.20;;
38994;SDS011;24769;18.712;99.000;2024-02-23T02:42:12;84.40;;;83.60;;
38994;SDS011;24769;18.712;99.000;2024-02-23T02:44:38;83.40;;;83.40;;
38994;SDS011;24769;18.712;99.000;2024-02-23T02:47:05;82.20;;;81.00;;
38994;SDS011;24769;18.712;99.000;2024-02-23T02:49:32;89.60;;;87.80;;
38994;SDS011;24769;18.712;99.000;2024-02-23T02:51:58;80.80;;;80.20;;
38994;SDS011;24769;18.712;99.000;2024-02-23T02:54:25;78.40;;;75.20;;
38994;SDS011;24769;18.712;99.000;2024-02-23T02:56:52;81.40;;;81.20;;
38994;SDS011;24769;18.712;99.000;2024-02-23T02:59:20;83.80;;;83.80;;
38994;SDS011;24769;18.712;99.000;2024-02-23T03:01:46;85.80;;;85.80;;
38994;SDS011;24769;18.712;99.000;2024-02-23T03:04:13;79.60;;;77.20;;
38994;SDS011;24769;18.712;99.000;2024-02-23T03:06:39;88.40;;;85.00;;
38994;SDS011;24769;18.712;99.000;2024-02-23T03:09:06;92.60;;;89.60;;
38994;SDS011;24769;18.712;99.000;2024-02-23T03:11:33;81.40;;;80.40;;
38994;SDS011;24769;18.712;99.000;2024-02-23T03:14:00;81.60;;;81.20;;
38994;SDS011;24769;18.712;99.000;2024-02-23T03:16:26;74.80;;;67.80;;
38994;SDS011;24769;18.712;99.000;2024-02-23T03:18:55;86.80;;;84.00;;
38994;SDS011;24769;18.712;99.000;2024-02-23T03:21:22;80.60;;;79.20;;
38994;SDS011;24769;18.712;99.000;2024-02-23T03:23:48;80.20;;;80.00;;
38994;SDS011;24769;18.712;99.000;2024-02-23T03:26:15;82.75;;;81.75;;
38994;SDS011;24769;18.712;99.000;2024-02-23T03:28:42;80.50;;;78.50;;
38994;SDS011;24769;18.712;99.000;2024-02-23T03:31:09;88.25;;;87.50;;
38994;SDS011;24769;18.712;99.000;2024-02-23T03:33:35;79.00;;;74.25;;
38994;SDS011;24769;18.712;99.000;2024-02-23T03:36:02;77.50;;;74.50;;
38994;SDS011;24769;18.712;99.000;2024-02-23T03:38:29;76.50;;;72.75;;
38994;SDS011;24769;18.712;99.000;2024-02-23T03:40:56;84.50;;;81.75;;
38994;SDS011;24769;18.712;99.000;2024-02-23T03:43:22;79.75;;;79.00;;
38994;SDS011;24769;18.712;99.000;2024-02-23T03:45:49;79.25;;;77.25;;
38994;SDS011;24769;18.712;99.000;2024-02-23T03:48:16;83.25;;;80.25;;
38994;SDS011;24769;18.712;99.000;2024-02-23T03:50:42;78.00;;;75.50;;
38994;SDS011;24769;18.712;99.000;2024-02-23T03:53:09;80.25;;;78.25;;
38994;SDS011;24769;18.712;99.000;2024-02-23T03:55:35;74.25;;;68.75;;
38994;SDS011;24769;18.712;99.000;2024-02-23T03:58:02;76.50;;;72.50;;
38994;SDS011;24769;18.712;99.000;2024-02-23T04:00:29;74.75;;;69.25;;
38994;SDS011;24769;18.712;99.000;2024-02-23T04:02:55;85.75;;;84.50;;
38994;SDS011;24769;18.712;99.000;2024-02-23T04:05:22;78.00;;;75.00;;
38994;SDS011;24769;18.712;99.000;2024-02-23T04:07:48;76.75;;;73.00;;
38994;SDS011;24769;18.712;99.000;2024-02-23T04:10:15;78.00;;;75.50;;
38994;SDS011;24769;18.712;99.000;2024-02-23T04:12:42;77.25;;;74.00;;
38994;SDS011;24769;18.712;99.000;2024-02-23T04:15:09;73.00;;;66.75;;
38994;SDS011;24769;18.712;99.000;2024-02-23T04:17:36;74.50;;;69.00;;
38994;SDS011;24769;18.712;99.000;2024-02-23T04:20:05;75.25;;;70.00;;
38994;SDS011;24769;18.712;99.000;2024-02-23T04:22:33;71.00;;;62.25;;
38994;SDS011;24769;18.712;99.000;2024-02-23T04:24:59;72.00;;;64.75;;
38994;SDS011;24769;18.712;99.000;2024-02-23T04:27:26;74.25;;;67.00;;
38994;SDS011;24769;18.712;99.000;2024-02-23T04:29:53;68.00;;;58.25;;
38994;SDS011;24769;18.712;99.000;2024-02-23T04:32:19;69.00;;;59.50;;
38994;SDS011;24769;18.712;99.000;2024-02-23T04:34:46;72.25;;;65.50;;
38994;SDS011;24769;18.712;99.000;2024-02-23T04:37:12;69.25;;;59.50;;
38994;SDS011;24769;18.712;99.000;2024-02-23T04:39:39;73.00;;;65.00;;
38994;SDS011;24769;18.712;99.000;2024-02-23T04:42:07;71.00;;;63.25;;
38994;SDS011;24769;18.712;99.000;2024-02-23T04:44:34;70.00;;;61.00;;
38994;SDS011;24769;18.712;99.000;2024-02-23T04:47:01;76.00;;;71.50;;
38994;SDS011;24769;18.712;99.000;2024-02-23T04:49:28;72.50;;;66.25;;
38994;SDS011;24769;18.712;99.000;2024-02-23T04:51:54;69.25;;;60.25;;
38994;SDS011;24769;18.712;99.000;2024-02-23T04:54:21;67.00;;;57.00;;
38994;SDS011;24769;18.712;99.000;2024-02-23T04:56:47;66.00;;;54.75;;
38994;SDS011;24769;18.712;99.000;2024-02-23T04:59:15;65.40;;;54.20;;
38994;SDS011;24769;18.712;99.000;2024-02-23T05:01:41;65.80;;;53.60;;
38994;SDS011;24769;18.712;99.000;2024-02-23T05:04:08;59.80;;;49.20;;
38994;SDS011;24769;18.712;99.000;2024-02-23T05:06:34;62.40;;;51.60;;
38994;SDS011;24769;18.712;99.000;2024-02-23T05:09:01;62.20;;;51.20;;
38994;SDS011;24769;18.712;99.000;2024-02-23T05:11:28;62.80;;;51.60;;
38994;SDS011;24769;18.712;99.000;2024-02-23T05:13:55;61.00;;;50.60;;
38994;SDS011;24769;18.712;99.000;2024-02-23T05:16:21;62.00;;;51.20;;
38994;SDS011;24769;18.712;99.000;2024-02-23T05:18:48;56.00;;;47.00;;
38994;SDS011;24769;18.712;99.000;2024-02-23T05:21:15;58.40;;;48.60;;
38994;SDS011;24769;18.712;99.000;2024-02-23T05:23:42;62.00;;;50.80;;
38994;SDS011;24769;18.712;99.000;2024-02-23T05:26:09;58.80;;;48.80;;
38994;SDS011;24769;18.712;99.000;2024-02-23T05:28:36;59.00;;;48.40;;
38994;SDS011;24769;18.712;99.000;2024-02-23T05:31:03;62.00;;;51.20;;
38994;SDS011;24769;18.712;99.000;2024-02-23T05:33:30;61.80;;;51.40;;
38994;SDS011;24769;18.712;99.000;2024-02-23T05:35:56;59.60;;;49.40;;
38994;SDS011;24769;18.712;99.000;2024-02-23T05:38:23;59.40;;;49.20;;
38994;SDS011;24769;18.712;99.000;2024-02-23T05:40:49;60.60;;;50.20;;
38994;SDS011;24769;18.712;99.000;2024-02-23T05:43:16;57.40;;;47.80;;
38994;SDS011;24769;18.712;99.000;2024-02-23T05:45:43;59.80;;;49.40;;
38994;SDS011;24769;18.712;99.000;2024-02-23T05:48:10;62.00;;;51.00;;
38994;SDS011;24769;18.712;99.000;2024-02-23T05:50:37;59.20;;;49.00;;
38994;SDS011;24769;18.712;99.000;2024-02-23T05:53:04;57.20;;;47.40;;
38994;SDS011;24769;18.712;99.000;2024-02-23T05:55:31;56.80;;;47.20;;
38994;SDS011;24769;18.712;99.000;2024-02-23T05:57:57;54.40;;;45.60;;
38994;SDS011;24769;18.712;99.000;2024-02-23T06:00:24;52.00;;;44.00;;
38994;SDS011;24769;18.712;99.000;2024-02-23T06:02:51;55.80;;;46.60;;
38994;SDS011;24769;18.712;99.000;2024-02-23T06:05:17;51.40;;;43.40;;
38994;SDS011;24769;18.712;99.000;2024-02-23T06:07:44;49.40;;;42.00;;
38994;SDS011;24769;18.712;99.000;2024-02-23T06:10:10;48.80;;;41.80;;
38994;SDS011;24769;18.712;99.000;2024-02-23T06:12:37;51.00;;;43.20;;
38994;SDS011;24769;18.712;99.000;2024-02-23T06:15:03;48.00;;;41.00;;
38994;SDS011;24769;18.712;99.000;2024-02-23T06:17:31;48.20;;;41.00;;
38994;SDS011;24769;18.712;99.000;2024-02-23T06:19:57;52.20;;;44.00;;
38994;SDS011;24769;18.712;99.000;2024-02-23T06:22:24;45.60;;;38.80;;
38994;SDS011;24769;18.712;99.000;2024-02-23T06:24:51;51.40;;;43.40;;
38994;SDS011;24769;18.712;99.000;2024-02-23T06:27:18;52.20;;;43.80;;
38994;SDS011;24769;18.712;99.000;2024-02-23T06:29:44;51.00;;;43.00;;
38994;SDS011;24769;18.712;99.000;2024-02-23T06:32:11;49.60;;;42.20;;
38994;SDS011;24769;18.712;99.000;2024-02-23T06:34:37;54.20;;;44.80;;
38994;SDS011;24769;18.712;99.000;2024-02-23T06:37:04;52.60;;;44.00;;
38994;SDS011;24769;18.712;99.000;2024-02-23T06:39:30;52.00;;;44.00;;
38994;SDS011;24769;18.712;99.000;2024-02-23T06:41:57;49.80;;;42.60;;
38994;SDS011;24769;18.712;99.000;2024-02-23T06:44:26;51.00;;;42.80;;
38994;SDS011;24769;18.712;99.000;2024-02-23T06:46:52;48.40;;;41.20;;
38994;SDS011;24769;18.712;99.000;2024-02-23T06:49:19;51.00;;;42.80;;
38994;SDS011;24769;18.712;99.000;2024-02-23T06:51:45;27.60;;;27.40;;
38994;SDS011;24769;18.712;99.000;2024-02-23T06:54:12;49.00;;;41.60;;
38994;SDS011;24769;18.712;99.000;2024-02-23T06:56:38;46.40;;;39.80;;
38994;SDS011;24769;18.712;99.000;2024-02-23T06:59:05;48.40;;;41.40;;
38994;SDS011;24769;18.712;99.000;2024-02-23T07:01:31;49.20;;;42.20;;
38994;SDS011;24769;18.712;99.000;2024-02-23T07:04:00;46.60;;;39.60;;
38994;SDS011;24769;18.712;99.000;2024-02-23T07:06:27;45.80;;;39.40;;
38994;SDS011;24769;18.712;99.000;2024-02-23T07:08:56;44.80;;;38.60;;
38994;SDS011;24769;18.712;99.000;2024-02-23T07:11:23;46.00;;;39.40;;
38994;SDS011;24769;18.712;99.000;2024-02-23T07:13:49;50.80;;;42.60;;
38994;SDS011;24769;18.712;99.000;2024-02-23T07:16:17;48.40;;;41.40;;
38994;SDS011;24769;18.712;99.000;2024-02-23T07:18:44;49.00;;;41.60;;
38994;SDS011;24769;18.712;99.000;2024-02-23T07:21:10;48.00;;;41.00;;
38994;SDS011;24769;18.712;99.000;2024-02-23T07:23:37;48.40;;;41.40;;
38994;SDS011;24769;18.712;99.000;2024-02-23T07:26:04;48.00;;;41.00;;
38994;SDS011;24769;18.712;99.000;2024-02-23T07:28:30;48.60;;;41.00;;
38994;SDS011;24769;18.712;99.000;2024-02-23T07:30:58;46.80;;;39.40;;
38994;SDS011;24769;18.712;99.000;2024-02-23T07:33:25;46.60;;;40.00;;
38994;SDS011;24769;18.712;99.000;2024-02-23T07:35:51;44.60;;;38.40;;
38994;SDS011;24769;18.712;99.000;2024-02-23T07:38:18;44.60;;;38.20;;
38994;SDS011;24769;18.712;99.000;2024-02-23T07:40:45;45.00;;;38.80;;
38994;SDS011;24769;18.712;99.000;2024-02-23T07:43:11;37.80;;;34.00;;
38994;SDS011;24769;18.712;99.000;2024-02-23T07:45:38;42.40;;;36.80;;
38994;SDS011;24769;18.712;99.000;2024-02-23T07:48:05;45.00;;;38.80;;
38994;SDS011;24769;18.712;99.000;2024-02-23T07:50:32;43.60;;;37.60;;
38994;SDS011;24769;18.712;99.000;2024-02-23T07:52:58;35.80;;;32.60;;
38994;SDS011;24769;18.712;99.000;2024-02-23T07:55:25;40.80;;;35.80;;
38994;SDS011;24769;18.712;99.000;2024-02-23T07:57:51;44.00;;;38.00;;
38994;SDS011;24769;18.712;99.000;2024-02-23T08:00:22;41.80;;;36.40;;
38994;SDS011;24769;18.712;99.000;2024-02-23T08:02:49;41.40;;;36.20;;
38994;SDS011;24769;18.712;99.000;2024-02-23T08:05:17;43.80;;;37.60;;
38994;SDS011;24769;18.712;99.000;2024-02-23T08:07:44;44.20;;;38.00;;
38994;SDS011;24769;18.712;99.000;2024-02-23T08:10:10;43.80;;;37.80;;
38994;SDS011;24769;18.712;99.000;2024-02-23T08:12:38;41.40;;;36.20;;
38994;SDS011;24769;18.712;99.000;2024-02-23T08:15:05;44.20;;;38.00;;
38994;SDS011;24769;18.712;99.000;2024-02-23T08:17:32;41.20;;;35.20;;
38994;SDS011;24769;18.712;99.000;2024-02-23T08:19:59;40.60;;;35.60;;
38994;SDS011;24769;18.712;99.000;2024-02-23T08:22:26;40.40;;;35.40;;
38994;SDS011;24769;18.712;99.000;2024-02-23T08:24:53;40.40;;;35.60;;
38994;SDS011;24769;18.712;99.000;2024-02-23T08:27:19;39.80;;;35.00;;
38994;SDS011;24769;18.712;99.000;2024-02-23T08:29:46;43.20;;;37.20;;
38994;SDS011;24769;18.712;99.000;2024-02-23T08:32:13;43.80;;;38.00;;
38994;SDS011;24769;18.712;99.000;2024-02-23T08:34:39;42.00;;;36.80;;
38994;SDS011;24769;18.712;99.000;2024-02-23T08:37:06;42.80;;;37.20;;
38994;SDS011;24769;18.712;99.000;2024-02-23T08:39:33;41.80;;;36.60;;
38994;SDS011;24769;18.712;99.000;2024-02-23T08:42:02;40.40;;;35.40;;
38994;SDS011;24769;18.712;99.000;2024-02-23T08:44:29;43.80;;;37.80;;
38994;SDS011;24769;18.712;99.000;2024-02-23T08:46:56;32.20;;;30.00;;
38994;SDS011;24769;18.712;99.000;2024-02-23T08:49:22;39.20;;;34.80;;
38994;SDS011;24769;18.712;99.000;2024-02-23T08:51:49;45.80;;;39.00;;
38994;SDS011;24769;18.712;99.000;2024-02-23T08:54:15;41.80;;;36.60;;
38994;SDS011;24769;18.712;99.000;2024-02-23T08:56:42;39.60;;;35.00;;
38994;SDS011;24769;18.712;99.000;2024-02-23T08:59:09;43.20;;;37.40;;
38994;SDS011;24769;18.712;99.000;2024-02-23T09:01:35;39.60;;;35.00;;
38994;SDS011;24769;18.712;99.000;2024-02-23T09:04:02;42.00;;;36.40;;
38994;SDS011;24769;18.712;99.000;2024-02-23T09:06:29;39.00;;;34.80;;
38994;SDS011;24769;18.712;99.000;2024-02-23T09:08:56;42.60;;;37.00;;
38994;SDS011;24769;18.712;99.000;2024-02-23T09:11:23;38.00;;;34.20;;
38994;SDS011;24769;18.712;99.000;2024-02-23T09:13:49;40.20;;;35.20;;
38994;SDS011;24769;18.712;99.000;2024-02-23T09:18:44;38.40;;;34.20;;
38994;SDS011;24769;18.712;99.000;2024-02-23T09:21:11;42.60;;;37.00;;
38994;SDS011;24769;18.712;99.000;2024-02-23T09:23:37;37.00;;;33.60;;
38994;SDS011;24769;18.712;99.000;2024-02-23T09:26:08;43.00;;;37.20;;
38994;SDS011;24769;18.712;99.000;2024-02-23T09:28:36;35.00;;;32.40;;
38994;SDS011;24769;18.712;99.000;2024-02-23T09:31:03;36.60;;;33.40;;
38994;SDS011;24769;18.712;99.000;2024-02-23T09:33:32;37.80;;;34.00;;
38994;SDS011;24769;18.712;99.000;2024-02-23T09:35:59;38.40;;;34.20;;
38994;SDS011;24769;18.712;99.000;2024-02-23T09:38:26;39.40;;;35.00;;
38994;SDS011;24769;18.712;99.000;2024-02-23T09:41:21;40.20;;;35.20;;
38994;SDS011;24769;18.712;99.000;2024-02-23T09:43:51;40.20;;;35.40;;
38994;SDS011;24769;18.712;99.000;2024-02-23T09:46:18;42.00;;;36.40;;
38994;SDS011;24769;18.712;99.000;2024-02-23T09:48:45;43.20;;;37.40;;
38994;SDS011;24769;18.712;99.000;2024-02-23T09:51:14;48.40;;;41.40;;
38994;SDS011;24769;18.712;99.000;2024-02-23T09:53:41;41.20;;;36.20;;
38994;SDS011;24769;18.712;99.000;2024-02-23T09:56:09;37.20;;;34.00;;
38994;SDS011;24769;18.712;99.000;2024-02-23T09:58:36;40.60;;;35.80;;
38994;SDS011;24769;18.712;99.000;2024-02-23T10:01:04;40.40;;;35.40;;
38994;SDS011;24769;18.712;99.000;2024-02-23T10:03:31;30.40;;;29.40;;
38994;SDS011;24769;18.712;99.000;2024-02-23T10:05:58;39.60;;;34.80;;
38994;SDS011;24769;18.712;99.000;2024-02-23T10:08:30;36.20;;;33.20;;
38994;SDS011;24769;18.712;99.000;2024-02-23T10:10:56;37.00;;;33.80;;
38994;SDS011;24769;18.712;99.000;2024-02-23T10:13:23;41.40;;;36.40;;
38994;SDS011;24769;18.712;99.000;2024-02-23T10:15:50;40.60;;;35.20;;
38994;SDS011;24769;18.712;99.000;2024-02-23T10:18:17;38.80;;;34.40;;
38994;SDS011;24769;18.712;99.000;2024-02-23T10:20:44;38.20;;;34.40;;
38994;SDS011;24769;18.712;99.000;2024-02-23T10:23:15;38.60;;;34.40;;
38994;SDS011;24769;18.712;99.000;2024-02-23T10:25:45;37.20;;;33.80;;
38994;SDS011;24769;18.712;99.000;2024-02-23T10:28:12;36.20;;;33.20;;
38994;SDS011;24769;18.712;99.000;2024-02-23T10:30:39;41.00;;;36.00;;
38994;SDS011;24769;18.712;99.000;2024-02-23T10:33:06;35.20;;;32.40;;
38994;SDS011;24769;18.712;99.000;2024-02-23T10:35:33;38.60;;;34.40;;
38994;SDS011;24769;18.712;99.000;2024-02-23T10:38:05;43.20;;;37.60;;
38994;SDS011;24769;18.712;99.000;2024-02-23T10:40:38;39.40;;;35.00;;
38994;SDS011;24769;18.712;99.000;2024-02-23T10:43:10;39.60;;;35.20;;
38994;SDS011;24769;18.712;99.000;2024-02-23T10:45:41;41.80;;;36.80;;
38994;SDS011;24769;18.712;99.000;2024-02-23T10:48:08;44.20;;;38.20;;
38994;SDS011;24769;18.712;99.000;2024-02-23T10:50:37;38.40;;;35.00;;
38994;SDS011;24769;18.712;99.000;2024-02-23T10:53:04;37.80;;;34.80;;
38994;SDS011;24769;18.712;99.000;2024-02-23T10:55:36;41.60;;;36.00;;
38994;SDS011;24769;18.712;99.000;2024-02-23T10:58:04;42.20;;;37.20;;
38994;SDS011;24769;18.712;99.000;2024-02-23T11:00:36;37.40;;;34.40;;
38994;SDS011;24769;18.712;99.000;2024-02-23T11:03:03;40.80;;;36.00;;
38994;SDS011;24769;18.712;99.000;2024-02-23T11:05:32;39.40;;;35.60;;
38994;SDS011;24769;18.712;99.000;2024-02-23T11:07:59;42.40;;;37.20;;
38994;SDS011;24769;18.712;99.000;2024-02-23T11:10:26;43.00;;;37.60;;
38994;SDS011;24769;18.712;99.000;2024-02-23T11:12:59;41.20;;;36.20;;
38994;SDS011;24769;18.712;99.000;2024-02-23T11:15:29;37.00;;;34.00;;
38994;SDS011;24769;18.712;99.000;2024-02-23T11:17:59;44.00;;;38.00;;
38994;SDS011;24769;18.712;99.000;2024-02-23T11:20:33;45.00;;;38.80;;
38994;SDS011;24769;18.712;99.000;2024-02-23T11:23:01;42.00;;;37.00;;
38994;SDS011;24769;18.712;99.000;2024-02-23T11:25:27;37.20;;;34.20;;
38994;SDS011;24769;18.712;99.000;2024-02-23T11:27:55;46.60;;;40.00;;
38994;SDS011;24769;18.712;99.000;2024-02-23T11:30:21;43.40;;;36.20;;
38994;SDS011;24769;18.712;99.000;2024-02-23T11:32:48;43.20;;;37.80;;
38994;SDS011;24769;18.712;99.000;2024-02-23T11:35:19;44.40;;;38.60;;
38994;SDS011;24769;18.712;99.000;2024-02-23T11:37:55;46.60;;;40.20;;
38994;SDS011;24769;18.712;99.000;2024-02-23T11:40:27;49.25;;;42.25;;
38994;SDS011;24769;18.712;99.000;2024-02-23T11:42:55;58.50;;;49.00;;
38994;SDS011;24769;18.712;99.000;2024-02-23T11:45:27;58.00;;;48.25;;
38994;SDS011;24769;18.712;99.000;2024-02-23T11:47:56;61.25;;;49.75;;
38994;SDS011;24769;18.712;99.000;2024-02-23T11:50:22;53.50;;;45.50;;
38994;SDS011;24769;18.712;99.000;2024-02-23T11:52:49;59.75;;;49.00;;
38994;SDS011;24769;18.712;99.000;2024-02-23T11:55:19;54.00;;;45.25;;
38994;SDS011;24769;18.712;99.000;2024-02-23T11:57:49;53.50;;;44.25;;
38994;SDS011;24769;18.712;99.000;2024-02-23T12:00:16;49.00;;;42.00;;
38994;SDS011;24769;18.712;99.000;2024-02-23T12:02:43;55.00;;;45.75;;
38994;SDS011;24769;18.712;99.000;2024-02-23T12:05:15;55.25;;;46.00;;
38994;SDS011;24769;18.712;99.000;2024-02-23T12:07:42;45.75;;;39.50;;
38994;SDS011;24769;18.712;99.000;2024-02-23T12:10:09;54.75;;;46.25;;
38994;SDS011;24769;18.712;99.000;2024-02-23T12:12:36;48.75;;;41.50;;
38994;SDS011;24769;18.712;99.000;2024-02-23T12:15:03;54.75;;;45.50;;
38994;SDS011;24769;18.712;99.000;2024-02-23T12:17:31;53.00;;;45.00;;
38994;SDS011;24769;18.712;99.000;2024-02-23T12:20:01;56.00;;;46.50;;
38994;SDS011;24769;18.712;99.000;2024-02-23T12:22:28;53.75;;;45.50;;
38994;SDS011;24769;18.712;99.000;2024-02-23T12:24:58;55.25;;;46.50;;
38994;SDS011;24769;18.712;99.000;2024-02-23T12:27:25;54.25;;;46.25;;
38994;SDS011;24769;18.712;99.000;2024-02-23T12:29:54;46.00;;;39.25;;
38994;SDS011;24769;18.712;99.000;2024-02-23T12:32:21;54.00;;;46.00;;
38994;SDS011;24769;18.712;99.000;2024-02-23T12:34:49;56.00;;;47.25;;
38994;SDS011;24769;18.712;99.000;2024-02-23T12:37:15;52.75;;;45.00;;
38994;SDS011;24769;18.712;99.000;2024-02-23T12:39:43;54.50;;;45.75;;
38994;SDS011;24769;18.712;99.000;2024-02-23T12:42:10;57.75;;;47.75;;
38994;SDS011;24769;18.712;99.000;2024-02-23T12:44:37;50.75;;;43.25;;
38994;SDS011;24769;18.712;99.000;2024-02-23T12:47:03;55.50;;;46.75;;
38994;SDS011;24769;18.712;99.000;2024-02-23T12:49:30;55.00;;;46.00;;
38994;SDS011;24769;18.712;99.000;2024-02-23T12:51:56;53.50;;;45.25;;
38994;SDS011;24769;18.712;99.000;2024-02-23T12:54:23;49.75;;;42.75;;
38994;SDS011;24769;18.712;99.000;2024-02-23T12:56:50;52.75;;;45.00;;
38994;SDS011;24769;18.712;99.000;2024-02-23T12:59:16;57.75;;;47.50;;
38994;SDS011;24769;18.712;99.000;2024-02-23T13:01:43;56.00;;;47.00;;
38994;SDS011;24769;18.712;99.000;2024-02-23T13:04:10;51.50;;;44.50;;
38994;SDS011;24769;18.712;99.000;2024-02-23T13:06:38;53.75;;;45.25;;
38994;SDS011;24769;18.712;99.000;2024-02-23T13:09:06;60.00;;;49.00;;
38994;SDS011;24769;18.712;99.000;2024-02-23T13:11:38;47.00;;;40.75;;
38994;SDS011;24769;18.712;99.000;2024-02-23T13:14:04;58.50;;;48.75;;
38994;SDS011;24769;18.712;99.000;2024-02-23T13:16:31;54.25;;;45.75;;
38994;SDS011;24769;18.712;99.000;2024-02-23T13:18:58;55.25;;;46.25;;
38994;SDS011;24769;18.712;99.000;2024-02-23T13:21:25;56.25;;;47.25;;
38994;SDS011;24769;18.712;99.000;2024-02-23T13:23:51;56.25;;;47.50;;
38994;SDS011;24769;18.712;99.000;2024-02-23T13:26:18;58.00;;;48.50;;
38994;SDS011;24769;18.712;99.000;2024-02-23T13:28:44;55.25;;;46.50;;
38994;SDS011;24769;18.712;99.000;2024-02-23T13:31:11;55.75;;;46.25;;
38994;SDS011;24769;18.712;99.000;2024-02-23T13:33:39;55.50;;;46.50;;
38994;SDS011;24769;18.712;99.000;2024-02-23T13:36:05;52.50;;;44.75;;
38994;SDS011;24769;18.712;99.000;2024-02-23T13:38:32;52.75;;;44.50;;
38994;SDS011;24769;18.712;99.000;2024-02-23T13:41:03;54.00;;;45.50;;
38994;SDS011;24769;18.712;99.000;2024-02-23T13:43:31;50.75;;;43.00;;
38994;SDS011;24769;18.712;99.000;2024-02-23T13:45:58;52.00;;;44.50;;
38994;SDS011;24769;18.712;99.000;2024-02-23T13:48:25;53.25;;;44.75;;
38994;SDS011;24769;18.712;99.000;2024-02-23T13:50:52;50.25;;;43.00;;
38994;SDS011;24769;18.712;99.000;2024-02-23T13:53:18;46.75;;;40.75;;
38994;SDS011;24769;18.712;99.000;2024-02-23T13:55:45;49.00;;;41.75;;
38994;SDS011;24769;18.712;99.000;2024-02-23T13:58:12;45.75;;;40.00;;
38994;SDS011;24769;18.712;99.000;2024-02-23T14:00:39;45.75;;;39.75;;
38994;SDS011;24769;18.712;99.000;2024-02-23T14:03:05;46.00;;;39.50;;
38994;SDS011;24769;18.712;99.000;2024-02-23T14:05:32;44.00;;;38.25;;
38994;SDS011;24769;18.712;99.000;2024-02-23T14:07:59;44.75;;;39.00;;
38994;SDS011;24769;18.712;99.000;2024-02-23T14:10:26;46.25;;;40.25;;
38994;SDS011;24769;18.712;99.000;2024-02-23T14:12:52;38.00;;;35.00;;